Terminal Aerodrome Forecast
Issued by NWS

Home | Current Version | Previous Version | Text Only | Print | Product List | Glossary Off
Versions: 1 2 3 4 5 6 7 8 9 10 11 12 13 14 15 16 17 18 19

000
FTUS43 KMPX 241700
TAFAXN
TAF
KAXN 241737Z 2418/2518 18011KT P6SM SCT025 BKN150
      TEMPO 2418/2420 BKN025
     FM242100 21013G21KT P6SM VCTS SCT035CB BKN100
     FM250000 23008KT P6SM SCT050 BKN120
     FM251400 27012KT P6SM SKC=

USA.gov is the U.S. government's official web portal to all federal, state and local government web resources and services.